This is the latest recevied weather packets stored in our database for station/object W1ERB-13. If no packets are shown the sender has not sent any weather packets the latest 10 day(s).
| Time | Temp. | Humidity | Pressure | Rain* | Wind** | Luminosity | Snow |
|---|---|---|---|---|---|---|---|
| 1777677970 | 14.44° C | 43% | 1009.6 hPa | 0 mm | - | 12 W/m² | - |
| 1777677668 | 14.44° C | 43% | 1009.9 hPa | 0 mm | - | 15 W/m² | - |
| 1777677365 | 15° C | 42% | 1009.5 hPa | 0 mm | - | 19 W/m² | - |
| 1777677063 | 15° C | 43% | 1009.5 hPa | 0 mm | - | 22 W/m² | - |
| 1777676761 | 15° C | 42% | 1009.5 hPa | 0 mm | - | 26 W/m² | - |
| 1777676459 | 15° C | 41% | 1009.6 hPa | 0 mm | - | 25 W/m² | - |
| 1777676156 | 15° C | 41% | 1009.6 hPa | 0 mm | - | 25 W/m² | - |
| 1777675852 | 15.56° C | 42% | 1009.7 hPa | 0 mm | - | 28 W/m² | - |
| 1777675550 | 15.56° C | 40% | 1009.7 hPa | 0 mm | - | 31 W/m² | - |
| 1777675247 | 16.11° C | 40% | 1009.5 hPa | 0 mm | - | 35 W/m² | - |
| 1777674943 | 16.11° C | 40% | 1009.5 hPa | 0 mm | - | 39 W/m² | - |
| 1777674640 | 16.67° C | 35% | 1009.2 hPa | 0 mm | - | 39 W/m² | - |
| 1777674339 | 16.67° C | 37% | 1009.1 hPa | 0 mm | - | 39 W/m² | - |
| 1777674034 | 16.67° C | 35% | 1009.3 hPa | 0 mm | - | 39 W/m² | - |
| 1777673729 | 16.67° C | 36% | 1009.5 hPa | 0 mm | - | 42 W/m² | - |
| 1777673427 | 16.67° C | 36% | 1009.4 hPa | 0 mm | - | 46 W/m² | - |
| 1777673125 | 16.67° C | 37% | 1009.4 hPa | 0 mm | - | 53 W/m² | - |
| 1777672821 | 17.22° C | 36% | 1009.3 hPa | 0 mm | - | 49 W/m² | - |
| 1777672517 | 17.22° C | 35% | 1009.2 hPa | 0 mm | - | 57 W/m² | - |
| 1777672213 | 17.22° C | 35% | 1009.4 hPa | 0 mm | - | 64 W/m² | - |
| 1777671909 | 17.22° C | 35% | 1009.2 hPa | 0 mm | - | 61 W/m² | - |
| 1777671604 | 17.22° C | 34% | 1009.3 hPa | 0 mm | - | 75 W/m² | - |
| 1777671301 | 17.22° C | 35% | 1009.2 hPa | 0 mm | - | 69 W/m² | - |
| 1777670996 | 16.67° C | 34% | 1009.4 hPa | 0 mm | - | 61 W/m² | - |
| 1777670693 | 17.22° C | 36% | 1009.3 hPa | 0 mm | - | 61 W/m² | - |
* Rain latest hour (hover to see other rain measurements)
** Current wind speed in m/s (hover to see current wind gust speed)